Time;durP1;ratioP1;P1;durP2;ratioP2;P2;SDS_P1;SDS_P2;PMS_P1;PMS_P2;Temp;Humidity;BMP_temperature;BMP_pressure;BME280_temperature;BME280_humidity;BME280_pressure;Samples;Min_cycle;Max_cycle;Signal;HPM_P1;HPM_P2
2021/01/13 01:01:44;;;;;;;8.38;6.05;;;;;;;1.96;72.19;93578.41;779680;75;32952;-78
2021/01/13 01:31:12;;;;;;;10.85;8.28;;;;;;;1.90;72.64;93560.80;836162;71;32579;-77
2021/01/13 01:46:40;;;;;;;13.80;10.30;;;;;;;1.67;73.31;93532.33;780323;75;32945;-77
2021/01/13 03:01:13;;;;;;;17.25;12.05;;;;;;;1.71;73.25;93524.84;834174;71;31310;-76
2021/01/13 03:16:16;;;;;;;17.40;11.75;;;;;;;1.67;73.44;93510.88;827841;71;32854;-77
2021/01/13 03:31:42;;;;;;;15.35;11.57;;;;;;;1.65;73.90;93502.60;809354;72;32826;-77
2021/01/13 03:46:40;;;;;;;21.68;13.38;;;;;;;1.62;74.06;93518.09;802066;74;32972;-79
2021/01/13 05:16:53;;;;;;;21.25;13.45;;;;;;;1.64;75.42;93551.45;802570;73;32878;-76
2021/01/13 05:31:42;;;;;;;21.55;13.78;;;;;;;1.72;75.95;93550.95;786623;75;32927;-75
2021/01/13 06:31:53;;;;;;;22.45;14.15;;;;;;;2.05;74.31;93583.35;828142;71;27050;-78
2021/01/13 06:46:45;;;;;;;27.07;16.05;;;;;;;2.00;73.81;93609.20;786769;75;32088;-80
2021/01/13 07:16:16;;;;;;;19.37;12.58;;;;;;;2.76;71.74;93631.79;828178;71;30954;-77
2021/01/13 07:46:28;;;;;;;9.90;7.03;;;;;;;3.29;68.61;93622.38;836127;71;31593;-76
2021/01/13 08:01:42;;;;;;;5.72;4.45;;;;;;;3.54;67.17;93635.02;787729;75;32433;-78
2021/01/13 08:31:47;;;;;;;11.33;6.97;;;;;;;3.83;66.93;93677.96;787663;75;32331;-78
2021/01/13 09:16:44;;;;;;;23.67;14.28;;;;;;;4.00;67.26;93700.48;787624;74;32396;-77
2021/01/13 09:46:43;;;;;;;20.45;13.60;;;;;;;4.35;66.71;93672.02;787970;75;32373;-78
2021/01/13 10:31:45;;;;;;;15.03;11.20;;;;;;;5.27;63.60;93651.85;820799;72;32515;-78
2021/01/13 11:16:16;;;;;;;17.65;12.10;;;;;;;5.42;62.22;93632.70;834377;71;32701;-77
2021/01/13 11:31:37;;;;;;;24.32;15.55;;;;;;;5.03;65.26;93637.51;780246;75;32984;-75
2021/01/13 11:46:42;;;;;;;26.40;15.43;;;;;;;4.68;67.25;93643.75;807784;72;32930;-77
2021/01/13 12:01:41;;;;;;;24.15;16.00;;;;;;;4.59;67.07;93641.73;794702;74;32900;-80
2021/01/13 12:16:43;;;;;;;18.25;13.00;;;;;;;4.61;65.82;93650.56;780240;75;33016;-78
2021/01/13 13:01:12;;;;;;;17.17;12.93;;;;;;;4.73;64.60;93663.98;835332;71;32610;-77
2021/01/13 13:16:12;;;;;;;16.62;11.53;;;;;;;4.76;64.07;93676.95;835334;71;31950;-77
2021/01/13 13:31:38;;;;;;;12.73;10.03;;;;;;;4.60;63.64;93686.17;782330;75;33074;-78
2021/01/13 14:01:11;;;;;;;19.73;12.25;;;;;;;4.13;64.94;93710.03;835734;71;31413;-77
2021/01/13 14:16:24;;;;;;;16.80;11.28;;;;;;;4.03;65.19;93704.89;835588;71;33185;-78
2021/01/13 14:31:15;;;;;;;17.35;11.68;;;;;;;3.89;65.11;93711.93;836078;71;32785;-79
2021/01/13 14:46:42;;;;;;;14.20;11.43;;;;;;;3.80;64.96;93737.66;810662;72;32839;-78
2021/01/13 15:01:14;;;;;;;16.52;9.78;;;;;;;3.52;65.08;93739.53;828525;71;32711;-77
2021/01/13 15:47:00;;;;;;;14.35;10.45;;;;;;;2.60;68.37;93788.20;772744;74;33091;-79
2021/01/13 16:16:15;;;;;;;15.28;11.38;;;;;;;2.02;68.85;93807.62;826779;71;32651;-76
2021/01/13 16:46:21;;;;;;;18.82;10.48;;;;;;;1.75;67.94;93849.11;812262;71;32936;-78
2021/01/13 17:01:27;;;;;;;14.65;9.60;;;;;;;1.59;66.26;93847.70;834446;71;32748;-78
2021/01/13 17:31:38;;;;;;;14.60;9.25;;;;;;;1.56;65.19;93877.14;788808;75;32936;-79
2021/01/13 18:01:18;;;;;;;19.40;11.85;;;;;;;1.53;65.37;93881.00;833787;71;32927;-78
2021/01/13 18:31:15;;;;;;;15.95;10.48;;;;;;;1.36;64.73;93894.05;827955;71;32566;-80
2021/01/13 20:01:44;;;;;;;11.93;8.05;;;;;;;0.86;64.44;93958.87;784340;74;33058;-77
2021/01/13 22:01:20;;;;;;;10.85;8.38;;;;;;;0.63;62.05;93972.27;828339;71;33148;-78
2021/01/13 22:31:37;;;;;;;13.30;10.08;;;;;;;0.51;62.35;93958.69;802119;74;33461;-78
2021/01/13 22:46:14;;;;;;;13.05;8.68;;;;;;;0.68;61.71;93937.47;829192;71;31099;-78
2021/01/13 23:01:13;;;;;;;14.03;8.60;;;;;;;0.74;61.72;93939.09;827778;71;32801;-76
2021/01/13 23:16:12;;;;;;;11.55;7.30;;;;;;;0.76;62.22;93930.60;818768;72;32677;-77
2021/01/13 23:31:43;;;;;;;14.15;7.33;;;;;;;0.79;63.05;93913.35;787455;75;32371;-79
